Terminal Aerodrome Forecast
Issued by NWS

Home | Current Version | Previous Version | Text Only | Print | Product List | Glossary On
Versions: 1 2 3 4 5 6 7 8 9 10 11 12 13 14 15 16 17 18 19 20 21 22 23 24 25 26 27 28 29 30 31 32 33 34 35 36
734
FTUS45 KSLC 162009 AAB
TAFENV
TAF AMD
KENV 162009Z 1620/1718 32012G20KT P6SM VCSH SCT040 BKN070
     FM170200 33010KT P6SM SCT080 BKN120
     FM171200 VRB04KT P6SM SCT120=

USA.gov is the U.S. government's official web portal to all federal, state and local government web resources and services.